Time;durP1;ratioP1;P1;durP2;ratioP2;P2;SDS_P1;SDS_P2;PMS_P1;PMS_P2;Temp;Humidity;BMP_temperature;BMP_pressure;BME280_temperature;BME280_humidity;BME280_pressure;Samples;Min_cycle;Max_cycle;Signal;HPM_P1;HPM_P2
2024/02/27 00:00:05;;;;;;;8.47;4.10;;;;;;;;;;6178352;23;20167;-90
2024/02/27 00:03:14;;;;;;;10.70;4.70;;;;;;;;;;6193027;23;20291;-92
2024/02/27 00:06:19;;;;;;;9.93;4.50;;;;;;;;;;6179459;23;20217;-92
2024/02/27 00:09:25;;;;;;;11.87;4.90;;;;;;;;;;6184530;23;20223;-91
2024/02/27 00:12:32;;;;;;;11.13;4.67;;;;;;;;;;6178641;23;20172;-91
2024/02/27 00:15:37;;;;;;;9.97;4.50;;;;;;;;;;6187228;23;20231;-91
2024/02/27 00:18:44;;;;;;;13.20;4.40;;;;;;;;;;6179140;23;20184;-91
2024/02/27 00:21:49;;;;;;;11.87;4.10;;;;;;;;;;6178865;23;20151;-92
2024/02/27 00:24:54;;;;;;;7.57;4.03;;;;;;;;;;6182232;23;20237;-91
2024/02/27 00:28:01;;;;;;;15.97;5.20;;;;;;;;;;6180938;23;20241;-91
2024/02/27 00:31:06;;;;;;;11.50;5.30;;;;;;;;;;6180607;23;20167;-92
2024/02/27 00:34:11;;;;;;;11.63;4.87;;;;;;;;;;6179598;23;20276;-92
2024/02/27 00:37:17;;;;;;;11.43;5.23;;;;;;;;;;6178572;23;20204;-91
2024/02/27 00:40:22;;;;;;;14.20;5.23;;;;;;;;;;6179809;23;20180;-92
2024/02/27 00:43:28;;;;;;;10.83;4.80;;;;;;;;;;6181741;23;20299;-93
2024/02/27 00:46:34;;;;;;;11.90;5.07;;;;;;;;;;6180292;23;20163;-90
2024/02/27 00:49:39;;;;;;;10.63;4.70;;;;;;;;;;6180002;23;20155;-93
2024/02/27 00:52:44;;;;;;;8.17;4.20;;;;;;;;;;6178753;23;20167;-91
2024/02/27 00:55:49;;;;;;;9.93;4.50;;;;;;;;;;6179000;23;20200;-93
2024/02/27 00:58:56;;;;;;;10.27;4.70;;;;;;;;;;6180321;23;20666;-91
2024/02/27 01:02:02;;;;;;;13.70;6.13;;;;;;;;;;6179482;23;20247;-92
2024/02/27 01:05:08;;;;;;;11.57;4.83;;;;;;;;;;6181412;23;20159;-91
2024/02/27 01:08:12;;;;;;;10.73;4.10;;;;;;;;;;6178920;23;20176;-92
2024/02/27 01:11:18;;;;;;;9.40;4.60;;;;;;;;;;6180416;23;20168;-92
2024/02/27 01:14:24;;;;;;;11.20;4.97;;;;;;;;;;6179908;23;20172;-91
2024/02/27 01:17:29;;;;;;;9.07;4.30;;;;;;;;;;6187085;23;20171;-91
2024/02/27 01:20:35;;;;;;;10.03;4.53;;;;;;;;;;6179211;23;20224;-91
2024/02/27 01:23:40;;;;;;;14.40;4.83;;;;;;;;;;6177163;23;20486;-92
2024/02/27 01:26:45;;;;;;;9.47;4.37;;;;;;;;;;6177122;23;20196;-92
2024/02/27 01:29:51;;;;;;;12.77;4.63;;;;;;;;;;6178376;23;20240;-92
2024/02/27 01:32:57;;;;;;;7.90;3.97;;;;;;;;;;6178418;23;20711;-92
2024/02/27 01:36:02;;;;;;;7.47;4.00;;;;;;;;;;6180012;23;20234;-92
2024/02/27 01:39:08;;;;;;;8.23;4.43;;;;;;;;;;6181202;23;20164;-93
2024/02/27 01:42:13;;;;;;;9.70;4.27;;;;;;;;;;6179838;23;20167;-91
2024/02/27 01:45:21;;;;;;;9.27;4.57;;;;;;;;;;6179446;23;20168;-93
2024/02/27 01:48:26;;;;;;;7.57;4.00;;;;;;;;;;6179164;23;20156;-90
2024/02/27 01:51:32;;;;;;;11.57;5.07;;;;;;;;;;6178321;23;20283;-91
2024/02/27 01:54:37;;;;;;;10.33;5.67;;;;;;;;;;6178802;23;20168;-91
2024/02/27 01:57:42;;;;;;;12.63;4.70;;;;;;;;;;6177568;23;20222;-92
2024/02/27 02:00:50;;;;;;;8.77;4.80;;;;;;;;;;6177459;23;20172;-91
2024/02/27 02:03:55;;;;;;;10.60;4.87;;;;;;;;;;6180029;23;20163;-91
2024/02/27 02:07:00;;;;;;;12.77;5.23;;;;;;;;;;6179019;23;20183;-91
2024/02/27 02:10:06;;;;;;;10.33;4.70;;;;;;;;;;6179218;23;20167;-90
2024/02/27 02:13:11;;;;;;;9.03;4.73;;;;;;;;;;6176898;23;20184;-90
2024/02/27 02:16:18;;;;;;;8.13;4.97;;;;;;;;;;6178815;23;20180;-91
2024/02/27 02:19:24;;;;;;;11.50;4.63;;;;;;;;;;6180644;23;20216;-92
2024/02/27 02:22:30;;;;;;;16.03;5.27;;;;;;;;;;6181533;23;20656;-92
2024/02/27 02:25:38;;;;;;;10.60;4.90;;;;;;;;;;6180432;23;20175;-93
2024/02/27 02:28:43;;;;;;;11.00;5.10;;;;;;;;;;6179568;23;20291;-92
2024/02/27 02:31:49;;;;;;;12.57;5.43;;;;;;;;;;6179193;23;20156;-92
2024/02/27 02:34:54;;;;;;;12.97;4.97;;;;;;;;;;6178432;23;20170;-93
2024/02/27 02:38:04;;;;;;;8.10;4.20;;;;;;;;;;6178762;23;20190;-92
2024/02/27 02:41:09;;;;;;;12.00;4.80;;;;;;;;;;6177907;23;20192;-92
2024/02/27 02:44:14;;;;;;;9.60;4.47;;;;;;;;;;6177255;23;20168;-93
2024/02/27 02:47:19;;;;;;;10.03;4.20;;;;;;;;;;6178192;23;20160;-92
2024/02/27 02:50:24;;;;;;;11.47;4.33;;;;;;;;;;6180153;23;20203;-91
2024/02/27 02:53:31;;;;;;;9.93;4.37;;;;;;;;;;6179287;23;20188;-92
2024/02/27 02:56:36;;;;;;;9.07;4.70;;;;;;;;;;6178866;23;20311;-93
2024/02/27 02:59:42;;;;;;;8.33;4.30;;;;;;;;;;6177502;23;20235;-91
2024/02/27 03:02:47;;;;;;;9.20;4.20;;;;;;;;;;6178472;23;20220;-91
2024/02/27 03:05:52;;;;;;;11.57;4.60;;;;;;;;;;6178656;23;20164;-91
2024/02/27 03:08:58;;;;;;;9.70;4.53;;;;;;;;;;6179294;23;20168;-92
2024/02/27 03:12:03;;;;;;;10.80;4.70;;;;;;;;;;6179279;23;20172;-92
2024/02/27 03:15:08;;;;;;;13.33;4.40;;;;;;;;;;6177526;23;20175;-91
2024/02/27 03:18:14;;;;;;;9.70;4.80;;;;;;;;;;6175915;23;20223;-92
2024/02/27 03:21:19;;;;;;;12.17;5.00;;;;;;;;;;6175888;23;20152;-92
2024/02/27 03:24:26;;;;;;;11.43;4.90;;;;;;;;;;6177909;23;20168;-92
2024/02/27 03:27:31;;;;;;;9.10;4.27;;;;;;;;;;6177977;23;20241;-92
2024/02/27 03:30:36;;;;;;;11.40;4.80;;;;;;;;;;6177774;23;20176;-91
2024/02/27 03:33:41;;;;;;;8.90;4.47;;;;;;;;;;6178775;23;20168;-93
2024/02/27 03:36:46;;;;;;;9.30;4.70;;;;;;;;;;6177964;23;20245;-92
2024/02/27 03:39:53;;;;;;;9.70;4.83;;;;;;;;;;6175760;23;20188;-92
2024/02/27 03:42:58;;;;;;;9.40;4.57;;;;;;;;;;6176658;23;20215;-91
2024/02/27 03:46:03;;;;;;;13.37;4.70;;;;;;;;;;6178372;23;20220;-91
2024/02/27 03:49:08;;;;;;;11.33;4.73;;;;;;;;;;6178246;23;20168;-91
2024/02/27 03:52:13;;;;;;;9.37;4.77;;;;;;;;;;6178879;23;20167;-91
2024/02/27 03:55:19;;;;;;;11.93;5.00;;;;;;;;;;6179094;23;20325;-91
2024/02/27 03:58:25;;;;;;;12.33;5.30;;;;;;;;;;6179025;23;20188;-91
2024/02/27 04:01:30;;;;;;;14.57;5.10;;;;;;;;;;6179266;23;20511;-92
2024/02/27 04:04:35;;;;;;;10.37;5.13;;;;;;;;;;6178485;23;20595;-90
2024/02/27 04:07:40;;;;;;;13.30;5.17;;;;;;;;;;6176357;23;20188;-88
2024/02/27 04:10:47;;;;;;;11.80;4.80;;;;;;;;;;6177859;23;20156;-90
2024/02/27 04:13:56;;;;;;;11.13;4.67;;;;;;;;;;6178809;23;20183;-90
2024/02/27 04:17:02;;;;;;;9.93;4.87;;;;;;;;;;6179477;23;20192;-91
2024/02/27 04:20:08;;;;;;;9.73;4.50;;;;;;;;;;6182165;23;20172;-91
2024/02/27 04:23:14;;;;;;;14.23;4.90;;;;;;;;;;6190329;23;20265;-91
2024/02/27 04:26:21;;;;;;;9.27;4.83;;;;;;;;;;6190557;23;20147;-91
2024/02/27 04:29:28;;;;;;;11.40;4.60;;;;;;;;;;6207654;23;20164;-92
2024/02/27 04:32:34;;;;;;;12.87;5.20;;;;;;;;;;6190885;23;20295;-91
2024/02/27 04:35:39;;;;;;;10.63;4.70;;;;;;;;;;6179912;23;20168;-91
2024/02/27 04:38:44;;;;;;;11.43;4.70;;;;;;;;;;6178589;23;20287;-90
2024/02/27 04:41:55;;;;;;;8.77;4.60;;;;;;;;;;6178623;23;20178;-90
2024/02/27 04:45:00;;;;;;;13.63;4.90;;;;;;;;;;6180199;23;20187;-90
2024/02/27 04:48:06;;;;;;;10.97;5.67;;;;;;;;;;6182074;23;20171;-92
2024/02/27 04:51:11;;;;;;;12.77;6.10;;;;;;;;;;6183108;23;20663;-91
2024/02/27 04:54:18;;;;;;;13.90;5.97;;;;;;;;;;6180751;23;20164;-91
2024/02/27 04:57:25;;;;;;;12.87;5.70;;;;;;;;;;6180608;23;20190;-91
2024/02/27 05:00:30;;;;;;;10.67;5.23;;;;;;;;;;6180737;23;20152;-91
2024/02/27 05:03:36;;;;;;;11.00;5.70;;;;;;;;;;6182290;23;20184;-91
2024/02/27 05:06:42;;;;;;;13.83;5.50;;;;;;;;;;6182265;23;20184;-89
2024/02/27 05:09:51;;;;;;;10.43;5.20;;;;;;;;;;6182226;23;20171;-91
2024/02/27 05:13:00;;;;;;;11.40;5.60;;;;;;;;;;6181652;23;20152;-92
2024/02/27 05:16:07;;;;;;;12.37;5.60;;;;;;;;;;6185284;23;20180;-92
2024/02/27 05:19:12;;;;;;;10.17;5.20;;;;;;;;;;6182715;23;20168;-93
2024/02/27 05:22:18;;;;;;;10.57;5.63;;;;;;;;;;6183374;23;20207;-92
2024/02/27 05:25:23;;;;;;;13.23;5.43;;;;;;;;;;6180701;23;20171;-90
2024/02/27 05:28:30;;;;;;;12.70;5.60;;;;;;;;;;6183250;23;20168;-91
2024/02/27 05:31:37;;;;;;;12.77;5.40;;;;;;;;;;6182159;23;20455;-91
2024/02/27 05:34:43;;;;;;;12.77;5.20;;;;;;;;;;6183145;23;20615;-93
2024/02/27 05:37:48;;;;;;;14.87;5.47;;;;;;;;;;6179833;23;20235;-92
2024/02/27 05:40:53;;;;;;;9.97;5.40;;;;;;;;;;6197637;23;20195;-92
2024/02/27 05:44:00;;;;;;;12.03;5.50;;;;;;;;;;6180733;23;20172;-91
2024/02/27 05:47:05;;;;;;;11.37;5.50;;;;;;;;;;6182029;23;20167;-90
2024/02/27 05:50:11;;;;;;;12.73;6.00;;;;;;;;;;6180326;23;20163;-91
2024/02/27 05:53:16;;;;;;;16.17;6.40;;;;;;;;;;6180685;23;20171;-90
2024/02/27 05:56:22;;;;;;;13.10;5.93;;;;;;;;;;6181967;23;20230;-92
2024/02/27 05:59:28;;;;;;;11.90;5.57;;;;;;;;;;6178205;23;20607;-92
2024/02/27 06:02:44;;;;;;;13.60;5.63;;;;;;;;;;6183010;23;20199;-91
2024/02/27 06:05:50;;;;;;;10.13;5.00;;;;;;;;;;6183629;23;20167;-91
2024/02/27 06:08:56;;;;;;;11.50;5.17;;;;;;;;;;6184330;23;20214;-92
2024/02/27 06:12:02;;;;;;;11.60;5.57;;;;;;;;;;6183768;23;20163;-93
2024/02/27 06:15:10;;;;;;;12.73;5.60;;;;;;;;;;6181544;23;20258;-91
2024/02/27 06:18:15;;;;;;;11.50;5.20;;;;;;;;;;6186281;23;20242;-91
2024/02/27 06:24:52;;;;;;;12.37;5.10;;;;;;;;;;6144634;23;20227;-92
2024/02/27 06:28:01;;;;;;;11.30;5.67;;;;;;;;;;6186547;23;20164;-92
2024/02/27 06:31:07;;;;;;;9.87;5.23;;;;;;;;;;6186230;23;20168;-93
2024/02/27 06:34:12;;;;;;;9.47;5.43;;;;;;;;;;6187427;23;20171;-92
2024/02/27 06:40:40;;;;;;;10.10;5.07;;;;;;;;;;6186927;23;20192;-94
2024/02/27 06:43:45;;;;;;;8.97;5.30;;;;;;;;;;6184495;23;20235;-91
2024/02/27 06:46:55;;;;;;;10.47;5.00;;;;;;;;;;6181765;23;20167;-92
2024/02/27 06:50:00;;;;;;;12.40;5.40;;;;;;;;;;6183877;23;20159;-91
2024/02/27 06:53:06;;;;;;;10.87;6.10;;;;;;;;;;6183763;23;20171;-90
2024/02/27 06:56:12;;;;;;;16.50;6.70;;;;;;;;;;6183948;23;20168;-91
2024/02/27 06:59:18;;;;;;;17.83;7.13;;;;;;;;;;6176634;23;20168;-92
2024/02/27 07:02:27;;;;;;;13.77;6.60;;;;;;;;;;6177575;23;20156;-91
2024/02/27 07:05:33;;;;;;;15.50;7.27;;;;;;;;;;6177386;23;20176;-92
2024/02/27 07:08:38;;;;;;;15.17;6.20;;;;;;;;;;6179586;23;20228;-88
2024/02/27 07:11:43;;;;;;;10.73;5.67;;;;;;;;;;6180127;23;20179;-90
2024/02/27 07:14:48;;;;;;;16.77;6.70;;;;;;;;;;6181027;23;20171;-91
2024/02/27 07:17:55;;;;;;;11.23;6.00;;;;;;;;;;6179188;23;20187;-91
2024/02/27 07:21:00;;;;;;;15.37;6.17;;;;;;;;;;6180344;23;20187;-90
2024/02/27 07:24:06;;;;;;;16.10;6.07;;;;;;;;;;6182329;23;20171;-91
2024/02/27 07:27:11;;;;;;;70.83;20.53;;;;;;;;;;6199099;23;20300;-91
2024/02/27 07:30:16;;;;;;;18.00;6.20;;;;;;;;;;6180649;23;20167;-93
2024/02/27 07:33:24;;;;;;;31.27;10.90;;;;;;;;;;6181418;23;20211;-91
2024/02/27 07:39:49;;;;;;;12.47;6.43;;;;;;;;;;6178093;23;20168;-91
2024/02/27 07:42:54;;;;;;;14.50;6.30;;;;;;;;;;6177459;23;20184;-92
2024/02/27 07:45:59;;;;;;;10.05;5.18;;;;;;;;;;6179106;23;20184;-93
2024/02/27 07:49:06;;;;;;;15.03;5.67;;;;;;;;;;6181007;23;20204;-90
2024/02/27 07:52:24;;;;;;;14.73;5.53;;;;;;;;;;6181675;23;20152;-91
2024/02/27 07:55:29;;;;;;;12.33;5.40;;;;;;;;;;6182938;23;20712;-92
2024/02/27 07:58:35;;;;;;;15.55;6.22;;;;;;;;;;6180424;23;20659;-91
2024/02/27 08:01:40;;;;;;;14.00;6.10;;;;;;;;;;6178677;23;20224;-92
2024/02/27 08:04:47;;;;;;;14.52;6.22;;;;;;;;;;6182006;23;20232;-91
2024/02/27 08:07:51;;;;;;;12.23;5.72;;;;;;;;;;6176845;23;20251;-91
2024/02/27 08:10:57;;;;;;;17.77;6.53;;;;;;;;;;6177729;23;20167;-93
2024/02/27 08:14:02;;;;;;;13.93;6.55;;;;;;;;;;6179351;23;20171;-92
2024/02/27 08:17:07;;;;;;;11.20;6.07;;;;;;;;;;6176898;23;20194;-91
2024/02/27 08:20:14;;;;;;;14.50;6.07;;;;;;;;;;6178458;23;20211;-91
2024/02/27 08:23:19;;;;;;;18.52;8.45;;;;;;;;;;6179123;23;20180;-91
2024/02/27 08:26:24;;;;;;;17.30;7.30;;;;;;;;;;6180398;23;20211;-92
2024/02/27 08:29:30;;;;;;;22.00;7.13;;;;;;;;;;6179847;23;20263;-90
2024/02/27 08:32:35;;;;;;;15.35;6.47;;;;;;;;;;6178267;23;20172;-91
2024/02/27 08:39:05;;;;;;;14.38;6.10;;;;;;;;;;6183266;23;20196;-91
2024/02/27 08:42:11;;;;;;;17.85;6.10;;;;;;;;;;6179577;23;20176;-91
2024/02/27 08:45:16;;;;;;;13.15;5.25;;;;;;;;;;6179159;23;20243;-93
2024/02/27 08:48:21;;;;;;;15.05;5.93;;;;;;;;;;6179112;23;20168;-92
2024/02/27 08:51:28;;;;;;;11.13;5.63;;;;;;;;;;6177092;23;20182;-91
2024/02/27 08:54:33;;;;;;;11.40;5.90;;;;;;;;;;6178644;23;20163;-92
2024/02/27 08:57:38;;;;;;;12.45;6.10;;;;;;;;;;6178141;23;20280;-90
2024/02/27 09:00:43;;;;;;;13.95;6.70;;;;;;;;;;6178003;23;20176;-91
2024/02/27 09:03:49;;;;;;;14.13;6.18;;;;;;;;;;6180632;23;20176;-91
2024/02/27 09:06:56;;;;;;;16.50;6.80;;;;;;;;;;6182764;23;20174;-91
2024/02/27 09:10:04;;;;;;;10.63;5.93;;;;;;;;;;6178052;23;20179;-92
2024/02/27 09:13:10;;;;;;;16.25;6.88;;;;;;;;;;6178229;23;20195;-90
2024/02/27 09:16:17;;;;;;;15.75;6.95;;;;;;;;;;6182023;23;20168;-90
2024/02/27 09:19:25;;;;;;;14.75;6.95;;;;;;;;;;6181924;23;20167;-91
2024/02/27 09:22:32;;;;;;;19.00;7.28;;;;;;;;;;6181698;23;20168;-92
2024/02/27 09:25:37;;;;;;;12.90;6.57;;;;;;;;;;6184033;23;20172;-91
2024/02/27 09:28:42;;;;;;;20.05;7.25;;;;;;;;;;6180962;23;20171;-91
2024/02/27 09:31:47;;;;;;;13.48;6.88;;;;;;;;;;6180793;23;20167;-91
2024/02/27 09:34:53;;;;;;;25.10;7.88;;;;;;;;;;6182664;23;20171;-91
2024/02/27 09:38:00;;;;;;;16.83;8.93;;;;;;;;;;6178638;23;20195;-90
2024/02/27 09:41:05;;;;;;;20.63;8.70;;;;;;;;;;6179445;23;20230;-92
2024/02/27 09:44:12;;;;;;;16.77;8.20;;;;;;;;;;6183704;23;20168;-91
2024/02/27 09:47:18;;;;;;;15.75;7.82;;;;;;;;;;6184546;23;20163;-90
2024/02/27 09:50:24;;;;;;;14.73;7.40;;;;;;;;;;6182509;23;20171;-91
2024/02/27 09:53:32;;;;;;;15.50;6.90;;;;;;;;;;6183487;23;20616;-90
2024/02/27 09:56:37;;;;;;;23.27;8.02;;;;;;;;;;6184017;23;20164;-90
2024/02/27 09:59:43;;;;;;;12.25;6.45;;;;;;;;;;6183015;23;20168;-91
2024/02/27 10:02:52;;;;;;;14.20;7.00;;;;;;;;;;6181484;23;20171;-90
2024/02/27 10:05:58;;;;;;;17.38;7.35;;;;;;;;;;6186604;23;20212;-93
2024/02/27 10:09:08;;;;;;;15.48;6.57;;;;;;;;;;6180167;23;20172;-91
2024/02/27 10:12:14;;;;;;;18.13;6.60;;;;;;;;;;6163518;23;20164;-91
2024/02/27 10:15:20;;;;;;;22.80;7.10;;;;;;;;;;6182444;23;20216;-91
2024/02/27 10:18:26;;;;;;;16.08;6.53;;;;;;;;;;6184080;23;20231;-92
2024/02/27 10:21:31;;;;;;;14.98;6.68;;;;;;;;;;6182534;23;20175;-92
2024/02/27 10:24:37;;;;;;;14.85;6.57;;;;;;;;;;6178832;23;20167;-90
2024/02/27 10:27:43;;;;;;;15.30;6.72;;;;;;;;;;6177762;23;20280;-90
2024/02/27 10:30:49;;;;;;;14.18;6.60;;;;;;;;;;6179334;23;20168;-91
2024/02/27 10:33:55;;;;;;;16.35;7.00;;;;;;;;;;6182589;23;20168;-91
2024/02/27 10:37:02;;;;;;;15.85;6.18;;;;;;;;;;6179839;23;20167;-92
2024/02/27 10:40:12;;;;;;;16.42;6.63;;;;;;;;;;6181929;23;20194;-90
2024/02/27 10:43:17;;;;;;;23.77;6.97;;;;;;;;;;6178930;23;20245;-92
2024/02/27 10:46:22;;;;;;;18.20;6.80;;;;;;;;;;6180938;23;20203;-90
2024/02/27 10:49:28;;;;;;;18.23;6.13;;;;;;;;;;6180732;23;20167;-91
2024/02/27 10:52:35;;;;;;;16.08;6.50;;;;;;;;;;6181101;23;20184;-91
2024/02/27 10:55:47;;;;;;;14.85;6.03;;;;;;;;;;6184165;23;20166;-91
2024/02/27 13:23:13;;;;;;;14.20;7.78;;;;;;;;;;6193527;22;20200;-91
2024/02/27 13:26:18;;;;;;;22.88;9.50;;;;;;;;;;6231950;23;20191;-91
2024/02/27 13:29:25;;;;;;;17.45;8.65;;;;;;;;;;6213236;23;20246;-92
2024/02/27 13:32:32;;;;;;;18.92;9.40;;;;;;;;;;6216146;23;20309;-90
2024/02/27 13:35:39;;;;;;;21.17;8.40;;;;;;;;;;6216562;23;20183;-91
2024/02/27 13:38:46;;;;;;;20.35;8.82;;;;;;;;;;6215468;23;20238;-91
2024/02/27 13:41:52;;;;;;;17.70;9.43;;;;;;;;;;6214593;23;20707;-90
2024/02/27 13:44:58;;;;;;;15.07;8.10;;;;;;;;;;6212035;23;20188;-92
2024/02/27 13:48:13;;;;;;;18.13;8.07;;;;;;;;;;6211685;23;20168;-91
2024/02/27 13:51:19;;;;;;;18.65;9.25;;;;;;;;;;6214516;23;20214;-90
2024/02/27 13:54:27;;;;;;;19.13;8.75;;;;;;;;;;6211777;23;20214;-91
2024/02/27 13:57:33;;;;;;;24.58;11.35;;;;;;;;;;6213713;23;20171;-93
2024/02/27 14:00:39;;;;;;;26.75;10.68;;;;;;;;;;6213298;23;20167;-92
2024/02/27 14:03:47;;;;;;;22.30;10.00;;;;;;;;;;6212936;23;20175;-90
2024/02/27 14:06:53;;;;;;;20.90;9.73;;;;;;;;;;6215403;23;20175;-89
2024/02/27 14:10:08;;;;;;;20.17;9.25;;;;;;;;;;6212356;23;20210;-90
2024/02/27 14:13:13;;;;;;;18.25;9.55;;;;;;;;;;6210913;23;20314;-90
2024/02/27 14:16:19;;;;;;;18.92;9.32;;;;;;;;;;6211817;23;20207;-92
2024/02/27 14:19:24;;;;;;;22.50;10.25;;;;;;;;;;6209552;23;20195;-91
2024/02/27 14:22:29;;;;;;;18.65;9.23;;;;;;;;;;6209541;23;20213;-90
2024/02/27 14:25:36;;;;;;;18.13;9.07;;;;;;;;;;6210627;23;20214;-90
2024/02/27 14:28:42;;;;;;;20.17;9.20;;;;;;;;;;6210671;23;20175;-90
2024/02/27 14:31:48;;;;;;;19.30;9.75;;;;;;;;;;6209728;23;20170;-91
2024/02/27 14:34:54;;;;;;;25.08;9.93;;;;;;;;;;6212256;23;20206;-91
2024/02/27 14:37:59;;;;;;;23.83;9.43;;;;;;;;;;6211303;23;20170;-91
2024/02/27 14:41:07;;;;;;;18.75;9.23;;;;;;;;;;6207475;23;20238;-91
2024/02/27 14:44:11;;;;;;;20.58;9.25;;;;;;;;;;6209361;23;20804;-91
2024/02/27 14:47:17;;;;;;;21.38;9.23;;;;;;;;;;6206546;23;20511;-91
2024/02/27 14:50:22;;;;;;;16.42;9.07;;;;;;;;;;6206646;23;20170;-91
2024/02/27 14:53:28;;;;;;;18.95;8.98;;;;;;;;;;6225754;23;20167;-90
2024/02/27 14:56:36;;;;;;;16.63;8.88;;;;;;;;;;6210304;23;20256;-91
2024/02/27 14:59:41;;;;;;;25.05;9.27;;;;;;;;;;6209404;23;20930;-90
2024/02/27 15:02:47;;;;;;;26.58;9.50;;;;;;;;;;6212279;23;20210;-92
2024/02/27 15:05:52;;;;;;;16.67;8.82;;;;;;;;;;6213369;23;20174;-92
2024/02/27 15:09:00;;;;;;;26.73;10.77;;;;;;;;;;6209072;23;20171;-90
2024/02/27 15:12:11;;;;;;;24.17;10.20;;;;;;;;;;6209642;23;20163;-91
2024/02/27 15:15:16;;;;;;;21.50;10.10;;;;;;;;;;6206766;23;20580;-92
2024/02/27 15:18:21;;;;;;;25.52;10.00;;;;;;;;;;6206652;23;20194;-91
2024/02/27 15:21:27;;;;;;;27.13;11.75;;;;;;;;;;6207876;23;20167;-92
2024/02/27 15:24:33;;;;;;;21.77;10.60;;;;;;;;;;6208370;23;20646;-92
2024/02/27 15:27:47;;;;;;;22.85;9.82;;;;;;;;;;6209561;23;20164;-91
2024/02/27 15:30:52;;;;;;;22.92;10.65;;;;;;;;;;6212990;23;20769;-93
2024/02/27 15:33:58;;;;;;;21.42;10.65;;;;;;;;;;6213409;23;20224;-91
2024/02/27 15:37:03;;;;;;;22.98;10.35;;;;;;;;;;6211497;23;20167;-91
2024/02/27 15:40:09;;;;;;;19.95;9.93;;;;;;;;;;6210783;23;20198;-90
2024/02/27 15:43:16;;;;;;;22.80;9.73;;;;;;;;;;6211676;23;20171;-91
2024/02/27 15:46:22;;;;;;;17.58;8.85;;;;;;;;;;6214375;23;20179;-91
2024/02/27 15:49:27;;;;;;;20.58;9.65;;;;;;;;;;6211984;23;20175;-89
2024/02/27 15:52:33;;;;;;;19.95;10.05;;;;;;;;;;6208621;23;20694;-92
2024/02/27 15:55:38;;;;;;;20.67;10.80;;;;;;;;;;6209669;23;20222;-92
2024/02/27 15:58:44;;;;;;;20.15;8.82;;;;;;;;;;6212368;23;20234;-91
2024/02/27 16:01:50;;;;;;;16.63;8.70;;;;;;;;;;6210457;23;20183;-93
2024/02/27 16:04:56;;;;;;;20.70;9.43;;;;;;;;;;6213042;23;20195;-92
2024/02/27 16:08:02;;;;;;;21.40;8.85;;;;;;;;;;6213291;23;20257;-91
2024/02/27 16:11:16;;;;;;;16.45;8.35;;;;;;;;;;6212515;23;20155;-91
2024/02/27 16:17:50;;;;;;;38.67;18.35;;;;;;;;;;6214064;23;20171;-92
2024/02/27 16:20:56;;;;;;;188.27;60.40;;;;;;;;;;6216250;23;20163;-91
2024/02/27 16:24:02;;;;;;;113.13;43.60;;;;;;;;;;6211423;23;20238;-91
2024/02/27 16:27:08;;;;;;;192.75;80.55;;;;;;;;;;6213770;23;20222;-92
2024/02/27 16:30:15;;;;;;;75.65;35.53;;;;;;;;;;6212272;23;20286;-92
2024/02/27 16:33:20;;;;;;;37.53;17.25;;;;;;;;;;6210005;23;20159;-92
2024/02/27 16:36:26;;;;;;;54.38;23.55;;;;;;;;;;6210571;23;20167;-92
2024/02/27 16:39:31;;;;;;;24.25;12.10;;;;;;;;;;6209277;23;20195;-91
2024/02/27 16:42:37;;;;;;;93.40;39.83;;;;;;;;;;6209781;23;20159;-92
2024/02/27 16:45:44;;;;;;;28.67;12.20;;;;;;;;;;6210024;23;20170;-91
2024/02/27 16:48:50;;;;;;;40.90;19.30;;;;;;;;;;6210109;23;20171;-91
2024/02/27 16:51:55;;;;;;;38.08;18.73;;;;;;;;;;6210096;23;20167;-92
2024/02/27 16:55:03;;;;;;;46.38;23.45;;;;;;;;;;6210736;23;20262;-92
2024/02/27 16:58:12;;;;;;;44.28;24.88;;;;;;;;;;6211456;23;20155;-90
2024/02/27 17:01:19;;;;;;;47.75;22.58;;;;;;;;;;6214174;23;20171;-90
2024/02/27 17:04:25;;;;;;;44.97;16.65;;;;;;;;;;6208781;23;20179;-91
2024/02/27 17:07:30;;;;;;;29.95;12.88;;;;;;;;;;6213330;23;20171;-91
2024/02/27 17:10:35;;;;;;;26.52;11.93;;;;;;;;;;6212184;23;20170;-92
2024/02/27 17:13:41;;;;;;;24.60;11.23;;;;;;;;;;6208580;23;20170;-90
2024/02/27 17:16:48;;;;;;;24.05;11.65;;;;;;;;;;6209711;23;20221;-93
2024/02/27 17:19:57;;;;;;;25.13;12.15;;;;;;;;;;6209562;23;20194;-94
2024/02/27 17:23:03;;;;;;;22.13;11.30;;;;;;;;;;6210934;23;20217;-91
2024/02/27 17:26:13;;;;;;;24.63;11.15;;;;;;;;;;6212207;23;20214;-92
2024/02/27 17:29:18;;;;;;;22.20;11.00;;;;;;;;;;6218666;23;20171;-92
2024/02/27 17:32:25;;;;;;;21.38;11.00;;;;;;;;;;6209955;23;20238;-92
2024/02/27 17:35:34;;;;;;;25.08;12.05;;;;;;;;;;6210221;23;20171;-93
2024/02/27 17:38:41;;;;;;;23.17;11.73;;;;;;;;;;6210218;23;20218;-91
2024/02/27 17:41:46;;;;;;;23.48;11.38;;;;;;;;;;6212397;23;20174;-92
2024/02/27 17:44:52;;;;;;;28.27;11.73;;;;;;;;;;6231109;23;20586;-92
2024/02/27 17:48:01;;;;;;;27.08;10.98;;;;;;;;;;6211078;23;20175;-92
2024/02/27 17:51:06;;;;;;;19.00;10.30;;;;;;;;;;6212450;23;20155;-93
2024/02/27 17:54:12;;;;;;;25.75;11.40;;;;;;;;;;6212732;23;20167;-91
2024/02/27 17:57:27;;;;;;;25.27;11.57;;;;;;;;;;6211668;23;20167;-91
2024/02/27 18:00:32;;;;;;;21.02;10.77;;;;;;;;;;6209366;23;20195;-92
2024/02/27 18:03:43;;;;;;;30.40;11.20;;;;;;;;;;6210796;23;20167;-92
2024/02/27 18:06:50;;;;;;;24.15;11.30;;;;;;;;;;6210049;23;20594;-91
2024/02/27 18:09:56;;;;;;;23.55;10.25;;;;;;;;;;6208640;23;20774;-93
2024/02/27 18:13:02;;;;;;;35.33;12.60;;;;;;;;;;6211073;23;20170;-91
2024/02/27 18:16:09;;;;;;;29.40;12.98;;;;;;;;;;6207620;23;20218;-91
2024/02/27 18:19:15;;;;;;;26.45;12.70;;;;;;;;;;6208778;23;20198;-92
2024/02/27 18:22:20;;;;;;;31.23;14.63;;;;;;;;;;6209459;23;20190;-92
2024/02/27 18:25:25;;;;;;;27.00;11.40;;;;;;;;;;6211084;23;20171;-92
2024/02/27 18:28:30;;;;;;;22.67;10.85;;;;;;;;;;6206117;23;20198;-91
2024/02/27 18:31:38;;;;;;;29.38;10.85;;;;;;;;;;6207113;23;20167;-91
2024/02/27 18:34:45;;;;;;;23.95;11.93;;;;;;;;;;6208229;23;20729;-92
2024/02/27 18:37:50;;;;;;;23.10;10.77;;;;;;;;;;6208744;23;20263;-91
2024/02/27 18:40:57;;;;;;;25.48;12.05;;;;;;;;;;6207901;23;20210;-93
2024/02/27 18:44:02;;;;;;;25.50;11.57;;;;;;;;;;6223513;23;20167;-91
2024/02/27 18:47:08;;;;;;;21.60;10.43;;;;;;;;;;6207023;23;20156;-92
2024/02/27 18:50:15;;;;;;;28.95;11.60;;;;;;;;;;6208360;23;20183;-92
2024/02/27 18:53:21;;;;;;;25.08;10.90;;;;;;;;;;6207616;23;20171;-93
2024/02/27 18:56:30;;;;;;;28.30;12.13;;;;;;;;;;6224835;23;20168;-92
2024/02/27 18:59:37;;;;;;;80.80;39.13;;;;;;;;;;6208068;23;20222;-91
2024/02/27 19:02:42;;;;;;;30.20;14.38;;;;;;;;;;6208583;23;20162;-91
2024/02/27 19:05:49;;;;;;;50.10;23.05;;;;;;;;;;6209304;23;20174;-90
2024/02/27 19:08:55;;;;;;;26.08;11.70;;;;;;;;;;6207837;23;20238;-93
2024/02/27 19:12:01;;;;;;;23.13;10.38;;;;;;;;;;6207925;23;20854;-91
2024/02/27 19:15:07;;;;;;;21.77;10.88;;;;;;;;;;6209050;23;20610;-92
2024/02/27 19:18:12;;;;;;;28.95;12.30;;;;;;;;;;6209318;23;20182;-90
2024/02/27 19:21:19;;;;;;;25.55;11.48;;;;;;;;;;6212090;23;20186;-91
2024/02/27 19:24:25;;;;;;;25.10;11.85;;;;;;;;;;6213870;23;20167;-90
2024/02/27 19:27:30;;;;;;;25.45;11.25;;;;;;;;;;6215300;23;20159;-91
2024/02/27 19:30:38;;;;;;;25.70;11.70;;;;;;;;;;6211767;23;20171;-92
2024/02/27 19:33:44;;;;;;;26.88;12.50;;;;;;;;;;6216221;23;20219;-93
2024/02/27 19:36:52;;;;;;;30.80;13.85;;;;;;;;;;6216856;23;20480;-91
2024/02/27 19:40:01;;;;;;;25.92;11.93;;;;;;;;;;6218038;23;20239;-93
2024/02/27 19:43:07;;;;;;;28.48;12.75;;;;;;;;;;6217259;23;20175;-91
2024/02/27 19:46:17;;;;;;;27.17;12.55;;;;;;;;;;6216032;23;20219;-90
2024/02/27 19:49:23;;;;;;;25.10;11.25;;;;;;;;;;6214093;23;20201;-92
2024/02/27 19:52:30;;;;;;;27.67;12.15;;;;;;;;;;6212870;23;20172;-92
2024/02/27 19:55:37;;;;;;;30.30;13.90;;;;;;;;;;6214921;23;20171;-92
2024/02/27 19:58:42;;;;;;;24.55;11.65;;;;;;;;;;6232088;23;20178;-92
2024/02/27 20:01:49;;;;;;;28.23;11.65;;;;;;;;;;6212772;23;20171;-89
2024/02/27 20:04:55;;;;;;;29.25;11.57;;;;;;;;;;6216690;23;20646;-92
2024/02/27 20:08:18;;;;;;;23.70;11.57;;;;;;;;;;6214168;23;20167;-94
2024/02/27 20:11:30;;;;;;;24.10;11.73;;;;;;;;;;6218033;23;20227;-93
2024/02/27 20:14:38;;;;;;;21.20;11.02;;;;;;;;;;6215360;23;20171;-92
2024/02/27 20:17:45;;;;;;;27.70;11.82;;;;;;;;;;6233916;23;20239;-91
2024/02/27 20:20:52;;;;;;;24.95;11.70;;;;;;;;;;6214184;23;20179;-91
2024/02/27 20:23:58;;;;;;;22.90;11.02;;;;;;;;;;6215206;23;20170;-93
2024/02/27 20:27:06;;;;;;;23.02;11.38;;;;;;;;;;6215488;23;20194;-92
2024/02/27 20:30:13;;;;;;;25.05;11.65;;;;;;;;;;6216803;23;20479;-94
2024/02/27 20:33:19;;;;;;;23.45;10.90;;;;;;;;;;6215153;23;20229;-92
2024/02/27 20:36:25;;;;;;;24.48;11.68;;;;;;;;;;6213152;23;20195;-92
2024/02/27 20:39:31;;;;;;;25.00;10.77;;;;;;;;;;6217185;23;20178;-91
2024/02/27 20:42:38;;;;;;;21.63;11.13;;;;;;;;;;6215879;23;20167;-92
2024/02/27 20:45:44;;;;;;;23.52;11.00;;;;;;;;;;6212972;23;20170;-92
2024/02/27 20:48:49;;;;;;;27.23;11.85;;;;;;;;;;6231013;23;20171;-92
2024/02/27 20:55:14;;;;;;;33.60;18.55;;;;;;;;;;6214572;23;20167;-91
2024/02/27 20:58:22;;;;;;;22.98;11.25;;;;;;;;;;6219130;23;20211;-94
2024/02/27 21:01:28;;;;;;;22.65;10.70;;;;;;;;;;6234419;23;20242;-91